Thor — WDC2707 — position and weather

sailwx.info

Track history (hours):
 
Tides and Currents Weather Stations Pressure Air Temp Water Temp Dewpoint Dewpoint Depression Visibility Wind Speed Wind Dir Waves Ship Positions

Thor

Owner: Kirby Inland Marine, LP, Houston, TX. More information available from US FCC via Universal Licensing System and Coast Guard Vessel Documentation Center.

Last reported at 2017-Sep-21 02:03 UTC. Time now 2017-Sep-22 11:52 UTC.
Position N 29°30' W 094°52'.

Length 114 m; draft 3 m.

Type: . MMSI: 366996640.

Date/timePositionNaut miles runAvg speedWind from/ knotsBaromVisibWave heightAir tempDewpointWater temp
2017-Sep-21 02:03N 29°30' W 094°52'1 6.0
2017-Sep-21 01:49N 29°31' W 094°53'2 5.9
2017-Sep-21 01:30N 29°32' W 094°54'3 5.8
2017-Sep-21 01:00N 29°35' W 094°56'3 5.7
2017-Sep-21 00:30N 29°37' W 094°58'3 6.2
2017-Sep-20 23:58N 29°40' W 094°59'3 5.6
2017-Sep-20 23:30N 29°42' W 095°01'3 5.0
2017-Sep-20 22:59N 29°44' W 095°03'3 0.9
2017-Sep-20 19:46N 29°47' W 095°05'1 0.4
2017-Sep-20 17:24N 29°46' W 095°05'1 1.5
2017-Sep-20 16:58N 29°46' W 095°05'2 3.6
2017-Sep-20 16:30N 29°45' W 095°04'2 4.3
2017-Sep-20 15:59N 29°44' W 095°01'2 4.2
2017-Sep-20 15:29N 29°42' W 094°60'2 4.9
2017-Sep-20 15:00N 29°40' W 094°58'3 3.4
2017-Sep-20 14:00N 29°37' W 094°60'1 2.2
2017-Sep-20 13:30N 29°36' W 095°01'0 0.1
2017-Sep-20 13:00N 29°36' W 095°01'0 0.0
2017-Sep-20 12:30N 29°36' W 095°01'0 0.0
2017-Sep-20 11:54N 29°36' W 095°01'0 0.0
2017-Sep-20 11:24N 29°36' W 095°01'0 0.0
2017-Sep-20 10:57N 29°36' W 095°01'0 0.0
2017-Sep-20 10:30N 29°36' W 095°01'0 0.0
2017-Sep-20 10:00N 29°36' W 095°01'0 0.0
2017-Sep-20 09:30N 29°36' W 095°01'0 0.0
2017-Sep-20 09:00N 29°36' W 095°01'0 0.0
2017-Sep-20 08:30N 29°37' W 095°01'0 0.0
2017-Sep-20 07:57N 29°37' W 095°01'0 0.0
2017-Sep-20 07:30N 29°37' W 095°01'0 0.0
2017-Sep-20 07:00N 29°36' W 095°01'0 0.0
2017-Sep-20 06:24N 29°36' W 095°01'0 0.0
2017-Sep-20 05:57N 29°36' W 095°01'0 0.0
2017-Sep-20 05:27N 29°36' W 095°01'0 0.0
2017-Sep-20 05:00N 29°36' W 095°01'0 0.0
2017-Sep-20 04:27N 29°36' W 095°01'0 0.0
2017-Sep-20 04:00N 29°36' W 095°01'0 0.0
2017-Sep-20 03:15N 29°37' W 095°01'0 0.0
2017-Sep-20 03:00N 29°36' W 095°01'0 0.0
2017-Sep-20 02:30N 29°36' W 095°01'0 0.1
2017-Sep-20 02:01N 29°36' W 095°01'1 1.6
2017-Sep-20 01:30N 29°37' W 095°00'2 4.7
2017-Sep-20 01:00N 29°37' W 094°58'3 6.1
2017-Sep-20 00:30N 29°40' W 094°59'3 5.5
2017-Sep-20 00:00N 29°42' W 095°01'2 4.8
2017-Sep-19 23:30N 29°44' W 095°03'3 4.7
2017-Sep-19 22:48N 29°47' W 095°05'2 1.0
2017-Sep-19 21:02N 29°45' W 095°06'0 0.0
2017-Sep-19 20:56N 29°45' W 095°06'0 0.0
2017-Sep-19 20:28N 29°45' W 095°06'0 0.0
2017-Sep-19 17:07N 29°45' W 095°06'0 2.5
2017-Sep-19 16:59N 29°46' W 095°05'0 0.0
2017-Sep-18 23:20N 29°45' W 095°06'1 3.7
2017-Sep-18 22:59N 29°46' W 095°05'1 0.5
2017-Sep-18 21:41N 29°46' W 095°05'1 0.0
2017-Sep-18 02:58N 29°45' W 095°06'1 0.6
2017-Sep-18 01:18N 29°46' W 095°05'2 4.8
2017-Sep-18 00:57N 29°45' W 095°04'2 4.6
2017-Sep-18 00:26N 29°43' W 095°01'2 4.2
2017-Sep-17 23:58N 29°42' W 094°60'2 5.0
2017-Sep-17 23:30N 29°40' W 094°58'3 5.4
2017-Sep-17 23:00N 29°37' W 094°57'3 5.4
2017-Sep-17 22:30N 29°35' W 094°56'3 5.6
2017-Sep-17 22:00N 29°33' W 094°54'3 5.5
2017-Sep-17 21:30N 29°30' W 094°52'26 1.6
2017-Sep-17 04:53N 29°36' W 094°23'6 5.0
2017-Sep-17 03:40N 29°39' W 094°17'1 4.9
2017-Sep-17 03:26N 29°39' W 094°16'2 5.0
2017-Sep-17 03:00N 29°40' W 094°13'2 4.8
2017-Sep-17 02:30N 29°41' W 094°11'2 4.3
2017-Sep-17 02:00N 29°42' W 094°08'2 4.5
2017-Sep-17 01:30N 29°43' W 094°07'18 0.9
2017-Sep-16 04:41N 30°01' W 094°02'54 1.1
2017-Sep-14 05:24N 29°29' W 094°52'2 5.6
2017-Sep-14 05:00N 29°31' W 094°53'3 5.9
2017-Sep-14 04:30N 29°33' W 094°55'3 6.4
2017-Sep-14 04:00N 29°36' W 094°57'3 6.4
2017-Sep-14 03:30N 29°39' W 094°58'3 6.3
2017-Sep-14 03:00N 29°42' W 094°60'3 5.4
2017-Sep-14 02:30N 29°44' W 095°02'3 5.8
2017-Sep-14 01:57N 29°46' W 095°05'0 0.0
2017-Sep-14 00:05N 29°46' W 095°05'0 5.6
2017-Sep-14 00:00N 29°46' W 095°05'0 0.1
2017-Sep-13 22:18N 29°46' W 095°05'1 0.6
2017-Sep-13 21:21N 29°45' W 095°06'0 0.0
2017-Sep-13 08:27N 29°45' W 095°06'2 4.1
2017-Sep-13 07:52N 29°47' W 095°04'0 0.3
2017-Sep-13 07:29N 29°47' W 095°04'2 0.1
2017-Sep-12 14:21N 29°46' W 095°05'2 3.3
2017-Sep-12 13:51N 29°47' W 095°04'0 0.1
2017-Sep-12 13:13N 29°47' W 095°04'0 0.9
2017-Sep-12 13:00N 29°47' W 095°04'2 3.3
2017-Sep-12 12:27N 29°45' W 095°04'2 5.0
2017-Sep-12 12:00N 29°44' W 095°02'2 4.5
2017-Sep-12 11:30N 29°42' W 095°00'3 5.3
2017-Sep-12 11:00N 29°40' W 094°58'3 6.0
2017-Sep-12 10:30N 29°37' W 094°57'3 6.0
2017-Sep-12 10:00N 29°35' W 094°56'3 6.2
2017-Sep-12 09:30N 29°32' W 094°54'3 6.3
2017-Sep-12 09:00N 29°29' W 094°52'  
Track history (hours):
 
Tides and Currents Weather Stations Pressure Air Temp Water Temp Dewpoint Dewpoint Depression Visibility Wind Speed Wind Dir Waves Ship Positions

Thor

Owner: Kirby Inland Marine, LP, Houston, TX. More information available from US FCC via Universal Licensing System and Coast Guard Vessel Documentation Center.

Last reported at 2017-Sep-21 02:03 UTC. Time now 2017-Sep-22 11:52 UTC.
Position N 29°30' W 094°52'.

Length 114 m; draft 3 m.

Type: . MMSI: 366996640.

Date/timePositionNaut miles runAvg speedWind from/ knotsBaromVisibWave heightAir tempDewpointWater temp
2017-Sep-21 02:03N 29°30' W 094°52'1 6.0
2017-Sep-21 01:49N 29°31' W 094°53'2 5.9
2017-Sep-21 01:30N 29°32' W 094°54'3 5.8
2017-Sep-21 01:00N 29°35' W 094°56'3 5.7
2017-Sep-21 00:30N 29°37' W 094°58'3 6.2
2017-Sep-20 23:58N 29°40' W 094°59'3 5.6
2017-Sep-20 23:30N 29°42' W 095°01'3 5.0
2017-Sep-20 22:59N 29°44' W 095°03'3 0.9
2017-Sep-20 19:46N 29°47' W 095°05'1 0.4
2017-Sep-20 17:24N 29°46' W 095°05'1 1.5
2017-Sep-20 16:58N 29°46' W 095°05'2 3.6
2017-Sep-20 16:30N 29°45' W 095°04'2 4.3
2017-Sep-20 15:59N 29°44' W 095°01'2 4.2
2017-Sep-20 15:29N 29°42' W 094°60'2 4.9
2017-Sep-20 15:00N 29°40' W 094°58'3 3.4
2017-Sep-20 14:00N 29°37' W 094°60'1 2.2
2017-Sep-20 13:30N 29°36' W 095°01'0 0.1
2017-Sep-20 13:00N 29°36' W 095°01'0 0.0
2017-Sep-20 12:30N 29°36' W 095°01'0 0.0
2017-Sep-20 11:54N 29°36' W 095°01'0 0.0
2017-Sep-20 11:24N 29°36' W 095°01'0 0.0
2017-Sep-20 10:57N 29°36' W 095°01'0 0.0
2017-Sep-20 10:30N 29°36' W 095°01'0 0.0
2017-Sep-20 10:00N 29°36' W 095°01'0 0.0
2017-Sep-20 09:30N 29°36' W 095°01'0 0.0
2017-Sep-20 09:00N 29°36' W 095°01'0 0.0
2017-Sep-20 08:30N 29°37' W 095°01'0 0.0
2017-Sep-20 07:57N 29°37' W 095°01'0 0.0
2017-Sep-20 07:30N 29°37' W 095°01'0 0.0
2017-Sep-20 07:00N 29°36' W 095°01'0 0.0
2017-Sep-20 06:24N 29°36' W 095°01'0 0.0
2017-Sep-20 05:57N 29°36' W 095°01'0 0.0
2017-Sep-20 05:27N 29°36' W 095°01'0 0.0
2017-Sep-20 05:00N 29°36' W 095°01'0 0.0
2017-Sep-20 04:27N 29°36' W 095°01'0 0.0
2017-Sep-20 04:00N 29°36' W 095°01'0 0.0
2017-Sep-20 03:15N 29°37' W 095°01'0 0.0
2017-Sep-20 03:00N 29°36' W 095°01'0 0.0
2017-Sep-20 02:30N 29°36' W 095°01'0 0.1
2017-Sep-20 02:01N 29°36' W 095°01'1 1.6
2017-Sep-20 01:30N 29°37' W 095°00'2 4.7
2017-Sep-20 01:00N 29°37' W 094°58'3 6.1
2017-Sep-20 00:30N 29°40' W 094°59'3 5.5
2017-Sep-20 00:00N 29°42' W 095°01'2 4.8
2017-Sep-19 23:30N 29°44' W 095°03'3 4.7
2017-Sep-19 22:48N 29°47' W 095°05'2 1.0
2017-Sep-19 21:02N 29°45' W 095°06'0 0.0
2017-Sep-19 20:56N 29°45' W 095°06'0 0.0
2017-Sep-19 20:28N 29°45' W 095°06'0 0.0
2017-Sep-19 17:07N 29°45' W 095°06'0 2.5
2017-Sep-19 16:59N 29°46' W 095°05'0 0.0
2017-Sep-18 23:20N 29°45' W 095°06'1 3.7
2017-Sep-18 22:59N 29°46' W 095°05'1 0.5
2017-Sep-18 21:41N 29°46' W 095°05'1 0.0
2017-Sep-18 02:58N 29°45' W 095°06'1 0.6
2017-Sep-18 01:18N 29°46' W 095°05'2 4.8
2017-Sep-18 00:57N 29°45' W 095°04'2 4.6
2017-Sep-18 00:26N 29°43' W 095°01'2 4.2
2017-Sep-17 23:58N 29°42' W 094°60'2 5.0
2017-Sep-17 23:30N 29°40' W 094°58'3 5.4
2017-Sep-17 23:00N 29°37' W 094°57'3 5.4
2017-Sep-17 22:30N 29°35' W 094°56'3 5.6
2017-Sep-17 22:00N 29°33' W 094°54'3 5.5
2017-Sep-17 21:30N 29°30' W 094°52'26 1.6
2017-Sep-17 04:53N 29°36' W 094°23'6 5.0
2017-Sep-17 03:40N 29°39' W 094°17'1 4.9
2017-Sep-17 03:26N 29°39' W 094°16'2 5.0
2017-Sep-17 03:00N 29°40' W 094°13'2 4.8
2017-Sep-17 02:30N 29°41' W 094°11'2 4.3
2017-Sep-17 02:00N 29°42' W 094°08'2 4.5
2017-Sep-17 01:30N 29°43' W 094°07'18 0.9
2017-Sep-16 04:41N 30°01' W 094°02'54 1.1
2017-Sep-14 05:24N 29°29' W 094°52'2 5.6
2017-Sep-14 05:00N 29°31' W 094°53'3 5.9
2017-Sep-14 04:30N 29°33' W 094°55'3 6.4
2017-Sep-14 04:00N 29°36' W 094°57'3 6.4
2017-Sep-14 03:30N 29°39' W 094°58'3 6.3
2017-Sep-14 03:00N 29°42' W 094°60'3 5.4
2017-Sep-14 02:30N 29°44' W 095°02'3 5.8
2017-Sep-14 01:57N 29°46' W 095°05'0 0.0
2017-Sep-14 00:05N 29°46' W 095°05'0 5.6
2017-Sep-14 00:00N 29°46' W 095°05'0 0.1
2017-Sep-13 22:18N 29°46' W 095°05'1 0.6
2017-Sep-13 21:21N 29°45' W 095°06'0 0.0
2017-Sep-13 08:27N 29°45' W 095°06'2 4.1
2017-Sep-13 07:52N 29°47' W 095°04'0 0.3
2017-Sep-13 07:29N 29°47' W 095°04'2 0.1
2017-Sep-12 14:21N 29°46' W 095°05'2 3.3
2017-Sep-12 13:51N 29°47' W 095°04'0 0.1
2017-Sep-12 13:13N 29°47' W 095°04'0 0.9
2017-Sep-12 13:00N 29°47' W 095°04'2 3.3
2017-Sep-12 12:27N 29°45' W 095°04'2 5.0
2017-Sep-12 12:00N 29°44' W 095°02'2 4.5
2017-Sep-12 11:30N 29°42' W 095°00'3 5.3
2017-Sep-12 11:00N 29°40' W 094°58'3 6.0
2017-Sep-12 10:30N 29°37' W 094°57'3 6.0
2017-Sep-12 10:00N 29°35' W 094°56'3 6.2
2017-Sep-12 09:30N 29°32' W 094°54'3 6.3
2017-Sep-12 09:00N 29°29' W 094°52'  

Dump ship's entire track history